Time;durP1;ratioP1;P1;durP2;ratioP2;P2;SDS_P1;SDS_P2;PMS_P1;PMS_P2;Temp;Humidity;BMP_temperature;BMP_pressure;BME280_temperature;BME280_humidity;BME280_pressure;Samples;Min_cycle;Max_cycle;Signal;HPM_P1;HPM_P2
2021/05/14 04:11:05;;;;;;;0.90;0.90;;;11.70;99.90;;;;;;5784482;23;20239;-77
2021/05/14 04:16:18;;;;;;;0.80;0.80;;;11.70;99.90;;;;;;4975691;28;20197;-77
2021/05/14 04:18:46;;;;;;;0.70;0.70;;;11.70;99.90;;;;;;4975643;28;20207;-77
2021/05/14 04:21:13;;;;;;;0.80;0.80;;;11.70;99.90;;;;;;4975603;28;20224;-77
2021/05/14 04:23:41;;;;;;;0.85;0.85;;;11.60;99.90;;;;;;5001343;23;20248;-75
2021/05/14 04:26:09;;;;;;;0.80;0.80;;;11.80;99.90;;;;;;4989588;28;20270;-76
2021/05/14 04:28:36;;;;;;;0.80;0.80;;;11.90;99.90;;;;;;4990848;28;20201;-76
2021/05/14 04:31:03;;;;;;;0.80;0.80;;;12.00;99.90;;;;;;4963394;28;20255;-76
2021/05/14 04:33:31;;;;;;;0.80;0.80;;;11.90;99.90;;;;;;4975302;28;20224;-76
2021/05/14 04:35:58;;;;;;;0.70;0.70;;;12.00;99.90;;;;;;4982107;28;20208;-76
2021/05/14 04:38:25;;;;;;;0.70;0.70;;;12.10;99.90;;;;;;4980874;28;20652;-76
2021/05/14 04:40:53;;;;;;;0.80;0.80;;;12.10;99.90;;;;;;4980238;28;20205;-76
2021/05/14 04:43:21;;;;;;;0.70;0.70;;;12.30;99.90;;;;;;4982597;28;20208;-76
2021/05/14 04:45:49;;;;;;;0.75;0.75;;;12.30;99.90;;;;;;4977705;28;20674;-76
2021/05/14 04:48:16;;;;;;;0.70;0.70;;;12.40;99.90;;;;;;4976575;28;20263;-76
2021/05/14 04:50:44;;;;;;;0.70;0.70;;;12.40;99.90;;;;;;4976034;28;20204;-76
2021/05/14 04:53:13;;;;;;;0.70;0.70;;;12.30;99.90;;;;;;4976642;28;20724;-76
2021/05/14 04:55:41;;;;;;;0.70;0.70;;;12.50;99.90;;;;;;4977073;28;20740;-76
2021/05/14 04:58:10;;;;;;;0.80;0.80;;;12.60;99.90;;;;;;4976871;28;20220;-76
2021/05/14 05:00:38;;;;;;;0.77;0.77;;;12.70;99.90;;;;;;4974577;28;20209;-75
2021/05/14 05:03:07;;;;;;;0.70;0.70;;;12.70;99.90;;;;;;4975707;28;20212;-76
2021/05/14 05:05:36;;;;;;;0.70;0.70;;;12.80;99.90;;;;;;4972879;28;20201;-76
2021/05/14 05:08:04;;;;;;;0.60;0.60;;;12.90;99.90;;;;;;4971362;28;20663;-76
2021/05/14 05:10:31;;;;;;;0.70;0.70;;;12.90;99.90;;;;;;4957282;28;20206;-76
2021/05/14 05:12:59;;;;;;;0.70;0.70;;;12.80;99.90;;;;;;4956929;28;20256;-76
2021/05/14 05:15:26;;;;;;;0.60;0.60;;;12.90;99.90;;;;;;4955573;28;20229;-76
2021/05/14 05:17:55;;;;;;;0.70;0.70;;;12.90;99.90;;;;;;4956104;28;20594;-76
2021/05/14 05:20:22;;;;;;;0.70;0.70;;;12.90;99.90;;;;;;4955974;28;20205;-76
2021/05/14 05:22:49;;;;;;;0.80;0.80;;;13.00;99.90;;;;;;4955375;28;20674;-76
2021/05/14 05:25:17;;;;;;;0.60;0.60;;;13.10;99.90;;;;;;4955240;28;20296;-75
2021/05/14 05:27:44;;;;;;;0.60;0.60;;;12.90;99.90;;;;;;4955857;28;20201;-76
2021/05/14 05:30:13;;;;;;;0.70;0.70;;;12.90;99.90;;;;;;4955885;28;20264;-76
2021/05/14 05:32:40;;;;;;;0.80;0.80;;;12.90;99.90;;;;;;4956582;28;20211;-76
2021/05/14 05:35:09;;;;;;;0.70;0.70;;;13.00;99.90;;;;;;4955473;28;20232;-76
2021/05/14 05:37:37;;;;;;;0.63;0.63;;;13.00;99.90;;;;;;4955325;28;20233;-76
2021/05/14 05:40:05;;;;;;;0.70;0.70;;;12.90;99.90;;;;;;4956059;28;20205;-76
2021/05/14 05:42:33;;;;;;;0.68;0.68;;;13.00;99.90;;;;;;4955973;28;20272;-75
2021/05/14 05:45:01;;;;;;;0.73;0.73;;;13.10;99.90;;;;;;4954560;28;20237;-76
2021/05/14 05:47:30;;;;;;;0.50;0.50;;;13.10;99.90;;;;;;4955060;28;20256;-76
2021/05/14 05:49:58;;;;;;;0.60;0.60;;;13.30;99.90;;;;;;4954945;28;20258;-75
2021/05/14 05:52:26;;;;;;;0.75;0.75;;;13.30;99.90;;;;;;4955579;28;20233;-77
2021/05/14 05:54:53;;;;;;;0.70;0.70;;;13.30;99.90;;;;;;4955329;28;20222;-76
2021/05/14 05:57:21;;;;;;;0.60;0.60;;;13.40;99.90;;;;;;4954345;28;20224;-76
2021/05/14 05:59:48;;;;;;;0.60;0.60;;;13.30;99.90;;;;;;4954802;28;20233;-76
2021/05/14 06:02:15;;;;;;;0.70;0.70;;;13.20;99.90;;;;;;4955541;28;20209;-75
2021/05/14 06:04:43;;;;;;;0.50;0.50;;;13.40;99.90;;;;;;4954361;28;20228;-76
2021/05/14 06:07:10;;;;;;;0.60;0.60;;;13.40;99.90;;;;;;4954509;28;20619;-76
2021/05/14 06:09:38;;;;;;;0.70;0.70;;;13.50;99.90;;;;;;4954864;28;20213;-76
2021/05/14 06:12:06;;;;;;;0.70;0.70;;;13.50;99.90;;;;;;4955460;28;20217;-77
2021/05/14 06:14:34;;;;;;;0.50;0.50;;;13.60;99.90;;;;;;4955439;28;20233;-76
2021/05/14 06:17:01;;;;;;;0.70;0.70;;;13.80;99.90;;;;;;4956255;28;20237;-76
2021/05/14 06:19:31;;;;;;;0.70;0.70;;;13.70;99.90;;;;;;4955463;28;20210;-77
2021/05/14 06:21:58;;;;;;;0.70;0.70;;;13.70;99.90;;;;;;4956059;28;20249;-75
2021/05/14 06:24:28;;;;;;;0.60;0.60;;;13.60;99.90;;;;;;4955379;28;20295;-78
2021/05/14 06:26:56;;;;;;;0.70;0.70;;;13.60;99.90;;;;;;4955295;28;20685;-77
2021/05/14 06:29:24;;;;;;;0.70;0.70;;;13.70;99.90;;;;;;4953819;28;20252;-76
2021/05/14 06:31:51;;;;;;;0.70;0.70;;;13.70;99.90;;;;;;4954095;28;20209;-78
2021/05/14 06:34:19;;;;;;;0.60;0.60;;;13.70;99.90;;;;;;4955315;28;20235;-76
2021/05/14 06:36:52;;;;;;;0.60;0.60;;;13.70;99.90;;;;;;4964327;28;20292;-76
2021/05/14 06:39:19;;;;;;;0.70;0.70;;;13.70;99.90;;;;;;4965903;28;20224;-76
2021/05/14 06:41:47;;;;;;;0.70;0.70;;;13.70;99.90;;;;;;4962404;28;20256;-76
2021/05/14 06:44:15;;;;;;;0.77;0.77;;;13.70;99.90;;;;;;4964496;28;20225;-76
2021/05/14 06:46:43;;;;;;;0.70;0.70;;;13.60;99.90;;;;;;4964324;28;20197;-76
2021/05/14 06:49:12;;;;;;;0.70;0.70;;;13.60;99.90;;;;;;4967697;28;20197;-76
2021/05/14 06:51:39;;;;;;;0.55;0.55;;;13.60;99.90;;;;;;4962969;28;20245;-77
2021/05/14 06:54:07;;;;;;;0.70;0.70;;;13.60;99.90;;;;;;4968106;28;20225;-76
2021/05/14 06:56:34;;;;;;;0.70;0.70;;;13.50;99.90;;;;;;4965808;28;20247;-77
2021/05/14 06:59:02;;;;;;;0.70;0.70;;;13.60;99.90;;;;;;4964388;28;20653;-78
2021/05/14 07:01:30;;;;;;;0.57;0.57;;;13.50;99.90;;;;;;4957326;29;20201;-77
2021/05/14 07:03:59;;;;;;;0.63;0.63;;;13.30;99.90;;;;;;4956266;28;20607;-77
2021/05/14 07:06:28;;;;;;;0.70;0.70;;;13.30;99.90;;;;;;4954711;29;20640;-71
2021/05/14 07:08:56;;;;;;;0.60;0.60;;;13.40;99.90;;;;;;4953712;29;20205;-71
2021/05/14 07:11:23;;;;;;;0.70;0.70;;;13.30;99.90;;;;;;4953555;29;20210;-71
2021/05/14 07:13:50;;;;;;;0.60;0.60;;;13.40;99.90;;;;;;4953130;28;20229;-70
2021/05/14 07:16:18;;;;;;;0.70;0.70;;;13.60;99.90;;;;;;4953904;29;20201;-71
2021/05/14 07:18:46;;;;;;;0.68;0.68;;;13.60;99.90;;;;;;4953566;29;20308;-77
2021/05/14 07:21:14;;;;;;;0.73;0.73;;;13.50;99.90;;;;;;4965916;28;20752;-77
2021/05/14 07:23:54;;;;;;;0.82;0.82;;;13.50;99.90;;;;;;4966086;28;20263;-77
2021/05/14 07:26:21;;;;;;;0.60;0.60;;;13.40;99.90;;;;;;4978122;28;20618;-77
2021/05/14 07:28:49;;;;;;;0.73;0.73;;;13.50;99.90;;;;;;4976101;28;20223;-77
2021/05/14 07:31:16;;;;;;;0.70;0.70;;;13.40;99.90;;;;;;4968582;28;20201;-77
2021/05/14 07:33:45;;;;;;;0.70;0.70;;;13.50;99.90;;;;;;4969931;28;20228;-76
2021/05/14 07:36:14;;;;;;;0.60;0.60;;;13.50;99.90;;;;;;4980624;28;20209;-76
2021/05/14 07:38:41;;;;;;;0.70;0.70;;;13.50;99.90;;;;;;4977707;28;20299;-76
2021/05/14 07:41:10;;;;;;;0.60;0.60;;;13.60;99.90;;;;;;4980548;28;20205;-75
2021/05/14 07:43:38;;;;;;;0.60;0.60;;;13.60;99.90;;;;;;4977211;28;20221;-75
2021/05/14 07:46:05;;;;;;;0.60;0.60;;;13.60;99.90;;;;;;4971114;28;20202;-75
2021/05/14 07:48:33;;;;;;;0.70;0.70;;;13.60;99.90;;;;;;4964048;28;20224;-75
2021/05/14 07:51:00;;;;;;;0.60;0.60;;;13.60;99.90;;;;;;4959474;28;20225;-75
2021/05/14 07:53:28;;;;;;;0.60;0.60;;;13.70;99.90;;;;;;4963226;28;20216;-75
2021/05/14 07:55:56;;;;;;;0.65;0.65;;;13.70;99.90;;;;;;4959193;28;20201;-77
2021/05/14 07:58:24;;;;;;;0.60;0.60;;;13.70;99.90;;;;;;4957861;29;20225;-77
2021/05/14 08:00:51;;;;;;;0.70;0.70;;;13.80;99.90;;;;;;4958324;28;20240;-76
2021/05/14 08:03:19;;;;;;;0.73;0.73;;;14.20;99.90;;;;;;4958274;28;20553;-77
2021/05/14 08:05:47;;;;;;;0.68;0.68;;;13.80;99.90;;;;;;4960084;28;20213;-77
2021/05/14 08:08:18;;;;;;;0.70;0.70;;;13.60;99.90;;;;;;4971382;28;20193;-75
2021/05/14 08:10:47;;;;;;;0.70;0.70;;;13.50;99.90;;;;;;4976196;28;20635;-76
2021/05/14 08:13:23;;;;;;;0.75;0.75;;;13.40;99.90;;;;;;4976471;28;20723;-75
2021/05/14 08:15:52;;;;;;;0.70;0.70;;;13.40;99.90;;;;;;4976875;28;20205;-76
2021/05/14 08:18:21;;;;;;;0.60;0.60;;;13.30;99.90;;;;;;4977040;28;20251;-75
2021/05/14 08:20:49;;;;;;;0.70;0.70;;;13.40;99.90;;;;;;4976425;28;20295;-76
2021/05/14 08:23:20;;;;;;;0.70;0.70;;;13.60;99.90;;;;;;4976551;28;20216;-75
2021/05/14 08:25:49;;;;;;;0.70;0.70;;;13.30;99.90;;;;;;4976218;28;20626;-75
2021/05/14 08:28:17;;;;;;;0.70;0.70;;;13.30;99.90;;;;;;4975298;28;20197;-75
2021/05/14 08:30:47;;;;;;;0.60;0.60;;;13.30;99.90;;;;;;4975941;28;20707;-75
2021/05/14 08:33:15;;;;;;;0.70;0.70;;;13.10;99.90;;;;;;4970018;28;20228;-74
2021/05/14 08:35:43;;;;;;;0.70;0.70;;;13.30;99.90;;;;;;4956430;28;20584;-76
2021/05/14 08:38:11;;;;;;;0.70;0.70;;;13.20;99.90;;;;;;4957288;29;20224;-75
2021/05/14 08:40:40;;;;;;;0.70;0.70;;;13.40;99.90;;;;;;4957444;29;20689;-76
2021/05/14 08:43:11;;;;;;;0.70;0.70;;;13.50;99.90;;;;;;4963427;28;20225;-75
2021/05/14 08:45:39;;;;;;;0.80;0.80;;;13.70;99.90;;;;;;4967653;28;20689;-76
2021/05/14 08:48:12;;;;;;;0.70;0.70;;;13.70;99.90;;;;;;4967446;28;20220;-75
2021/05/14 08:50:40;;;;;;;0.60;0.60;;;13.70;99.90;;;;;;4962250;28;20284;-76
2021/05/14 08:53:28;;;;;;;0.70;0.70;;;13.90;99.90;;;;;;4966955;28;20281;-76
2021/05/14 08:55:57;;;;;;;0.70;0.70;;;13.90;99.90;;;;;;4967208;28;20667;-76
2021/05/14 08:58:25;;;;;;;0.70;0.70;;;14.10;99.90;;;;;;4966292;28;20629;-76
2021/05/14 09:00:53;;;;;;;0.70;0.70;;;14.20;99.90;;;;;;4966253;28;20554;-76
2021/05/14 09:03:24;;;;;;;0.70;0.70;;;14.50;99.90;;;;;;4967105;28;20607;-75
2021/05/14 09:05:53;;;;;;;0.70;0.70;;;14.40;99.90;;;;;;4966096;28;20228;-76
2021/05/14 09:08:28;;;;;;;0.60;0.60;;;14.60;99.90;;;;;;4964636;28;20282;-76
2021/05/14 09:10:56;;;;;;;0.70;0.70;;;14.60;99.90;;;;;;4956300;28;20573;-76
2021/05/14 09:13:35;;;;;;;0.60;0.60;;;14.70;99.90;;;;;;4955672;28;20733;-74
2021/05/14 09:16:03;;;;;;;0.70;0.70;;;14.80;99.90;;;;;;4967849;28;20240;-75
2021/05/14 09:18:31;;;;;;;0.60;0.60;;;14.90;99.90;;;;;;4971927;28;20307;-75
2021/05/14 09:21:00;;;;;;;0.50;0.50;;;15.10;99.90;;;;;;4977280;28;20228;-74
2021/05/14 09:23:33;;;;;;;0.70;0.70;;;15.20;99.90;;;;;;4979393;28;20201;-73
2021/05/14 09:26:03;;;;;;;0.60;0.60;;;15.30;99.90;;;;;;4979015;28;20205;-75
2021/05/14 09:28:33;;;;;;;0.50;0.50;;;15.50;99.90;;;;;;4980530;28;20669;-74
2021/05/14 09:31:07;;;;;;;0.50;0.50;;;15.70;99.90;;;;;;4975933;28;20558;-75
2021/05/14 09:33:37;;;;;;;0.50;0.50;;;15.70;99.90;;;;;;4974185;28;20220;-75
2021/05/14 09:36:06;;;;;;;0.60;0.60;;;15.70;99.90;;;;;;4974325;28;20205;-75
2021/05/14 09:38:48;;;;;;;0.50;0.50;;;15.80;99.90;;;;;;4973916;28;20752;-75
2021/05/14 09:41:29;;;;;;;0.60;0.60;;;15.70;99.90;;;;;;4974158;28;20208;-75
2021/05/14 09:44:02;;;;;;;0.60;0.60;;;15.80;99.90;;;;;;4974174;28;20224;-75
2021/05/14 09:46:33;;;;;;;0.50;0.50;;;15.70;99.90;;;;;;4974177;28;20204;-75
2021/05/14 09:49:07;;;;;;;0.60;0.60;;;15.90;99.90;;;;;;4974032;28;20287;-75
2021/05/14 09:51:45;;;;;;;0.50;0.50;;;15.90;99.90;;;;;;4974146;28;20268;-75
2021/05/14 09:54:22;;;;;;;0.60;0.60;;;15.90;99.90;;;;;;4973586;28;20232;-74
2021/05/14 09:57:07;;;;;;;0.40;0.40;;;16.10;99.90;;;;;;4973936;28;20235;-75
2021/05/14 09:59:35;;;;;;;0.40;0.40;;;16.10;99.90;;;;;;4973726;28;20287;-75
2021/05/14 10:02:04;;;;;;;0.60;0.60;;;16.10;99.90;;;;;;4970689;28;20197;-75
2021/05/14 10:04:35;;;;;;;0.60;0.60;;;16.20;99.90;;;;;;4962691;28;20245;-74
2021/05/14 10:07:04;;;;;;;0.60;0.60;;;16.10;99.90;;;;;;4963492;28;20313;-77
2021/05/14 10:09:31;;;;;;;0.60;0.60;;;16.20;99.90;;;;;;4956530;29;20201;-77
2021/05/14 10:11:59;;;;;;;0.68;0.68;;;16.40;99.90;;;;;;4955951;28;20205;-78
2021/05/14 10:14:28;;;;;;;0.50;0.50;;;16.40;97.40;;;;;;4956069;28;20225;-79
2021/05/14 10:16:57;;;;;;;0.60;0.60;;;16.40;99.90;;;;;;4957559;29;20209;-79
2021/05/14 10:19:27;;;;;;;0.60;0.60;;;16.50;98.80;;;;;;4955779;29;20221;-76
2021/05/14 10:21:55;;;;;;;0.40;0.40;;;16.70;97.80;;;;;;4953968;29;20201;-75
2021/05/14 10:24:40;;;;;;;0.60;0.60;;;17.10;99.90;;;;;;4977456;23;20253;-74
2021/05/14 10:27:19;;;;;;;0.50;0.50;;;17.00;95.80;;;;;;4965721;28;20251;-76
2021/05/14 10:29:47;;;;;;;0.50;0.50;;;;;;;;;;4973785;28;20192;-76
2021/05/14 10:32:15;;;;;;;0.50;0.50;;;17.30;95.50;;;;;;4964728;28;20205;-75
2021/05/14 10:34:44;;;;;;;0.40;0.40;;;17.20;96.50;;;;;;4963653;28;20252;-75
2021/05/14 10:37:11;;;;;;;0.45;0.45;;;17.30;97.10;;;;;;4957272;28;20197;-76
2021/05/14 10:39:41;;;;;;;0.50;0.50;;;17.20;95.90;;;;;;4953686;28;20280;-76
2021/05/14 10:42:11;;;;;;;0.40;0.40;;;17.30;95.70;;;;;;4954298;29;20205;-76
2021/05/14 10:44:54;;;;;;;0.50;0.50;;;17.40;96.00;;;;;;4953438;28;20227;-76
2021/05/14 10:47:46;;;;;;;0.50;0.50;;;17.70;97.90;;;;;;4953850;29;20414;-77
2021/05/14 10:50:37;;;;;;;0.50;0.50;;;17.40;95.80;;;;;;4953645;29;20594;-76
2021/05/14 10:53:45;;;;;;;0.50;0.50;;;17.60;96.70;;;;;;4954082;28;20618;-77
2021/05/14 10:56:55;;;;;;;0.40;0.40;;;17.50;98.90;;;;;;4953942;28;20267;-76
2021/05/14 10:59:34;;;;;;;0.50;0.50;;;17.60;96.70;;;;;;4951446;28;20229;-76
2021/05/14 11:02:21;;;;;;;0.50;0.50;;;17.70;97.30;;;;;;4957905;28;20197;-76
2021/05/14 11:04:49;;;;;;;0.50;0.50;;;17.50;98.00;;;;;;4957026;28;20225;-76
2021/05/14 11:07:39;;;;;;;0.50;0.50;;;17.30;96.40;;;;;;4957838;29;20725;-76
2021/05/14 11:10:29;;;;;;;0.40;0.40;;;17.20;97.40;;;;;;4957205;29;20555;-75
2021/05/14 11:12:56;;;;;;;0.40;0.40;;;17.60;98.30;;;;;;4957469;29;20205;-75
2021/05/14 11:15:31;;;;;;;0.50;0.50;;;17.80;96.90;;;;;;4957142;28;20312;-75
2021/05/14 11:18:21;;;;;;;0.40;0.40;;;18.40;99.90;;;;;;4957342;28;20211;-77
2021/05/14 11:20:50;;;;;;;0.40;0.40;;;18.20;98.30;;;;;;4968310;28;20216;-75
2021/05/14 11:23:38;;;;;;;0.50;0.50;;;18.20;98.60;;;;;;4964918;28;20201;-76
2021/05/14 11:26:07;;;;;;;0.30;0.30;;;18.30;96.80;;;;;;4965810;28;20386;-74
2021/05/14 11:28:43;;;;;;;0.40;0.40;;;18.60;98.50;;;;;;4965551;28;20203;-74
2021/05/14 11:31:18;;;;;;;0.38;0.38;;;18.70;99.90;;;;;;4966237;28;20251;-75
2021/05/14 11:33:48;;;;;;;0.30;0.30;;;18.80;98.30;;;;;;4965985;28;20288;-76
2021/05/14 11:36:20;;;;;;;0.40;0.40;;;18.60;97.00;;;;;;4967684;28;20304;-76
2021/05/14 11:38:50;;;;;;;0.30;0.30;;;18.70;97.80;;;;;;4967546;28;20248;-75
2021/05/14 11:41:24;;;;;;;0.40;0.40;;;18.80;97.50;;;;;;4961710;28;20271;-76
2021/05/14 11:43:56;;;;;;;0.40;0.40;;;18.90;96.10;;;;;;4960077;28;20216;-76
2021/05/14 11:46:25;;;;;;;0.43;0.43;;;18.80;95.80;;;;;;4960051;28;20276;-75
2021/05/14 11:48:52;;;;;;;0.40;0.40;;;18.70;96.50;;;;;;4965080;28;20201;-75
2021/05/14 11:51:20;;;;;;;0.40;0.40;;;18.90;95.80;;;;;;4966762;28;20681;-76
2021/05/14 11:53:48;;;;;;;0.40;0.40;;;19.20;95.60;;;;;;4967161;28;20201;-76
2021/05/14 11:56:16;;;;;;;0.40;0.40;;;19.10;93.60;;;;;;4964264;28;20239;-76
2021/05/14 11:58:44;;;;;;;0.30;0.30;;;19.10;93.40;;;;;;4972813;28;20204;-76
2021/05/14 12:01:11;;;;;;;0.32;0.32;;;19.30;94.80;;;;;;4963186;28;20248;-75
2021/05/14 12:03:41;;;;;;;0.40;0.40;;;19.40;96.00;;;;;;4972908;28;20201;-76
2021/05/14 12:06:10;;;;;;;0.40;0.40;;;19.40;94.80;;;;;;4966001;28;20268;-75
2021/05/14 12:08:37;;;;;;;0.30;0.30;;;19.10;94.50;;;;;;4965079;28;20237;-78
2021/05/14 12:11:11;;;;;;;0.40;0.40;;;19.20;95.00;;;;;;4966400;28;20197;-74
2021/05/14 12:13:40;;;;;;;0.40;0.40;;;19.30;93.60;;;;;;4965041;28;20233;-75
2021/05/14 12:16:10;;;;;;;0.30;0.30;;;19.30;93.80;;;;;;4970148;28;20292;-75
2021/05/14 12:18:44;;;;;;;0.40;0.40;;;19.40;93.60;;;;;;4964835;28;20283;-74
2021/05/14 12:21:22;;;;;;;0.30;0.30;;;19.40;93.10;;;;;;4970467;28;20189;-74
2021/05/14 12:23:50;;;;;;;0.35;0.35;;;19.20;93.10;;;;;;4968246;28;20192;-74
2021/05/14 12:26:19;;;;;;;0.40;0.40;;;19.20;93.60;;;;;;4970265;28;20773;-74
2021/05/14 12:28:47;;;;;;;0.40;0.40;;;19.20;92.70;;;;;;4968960;28;20201;-74
2021/05/14 12:31:23;;;;;;;0.40;0.40;;;19.60;92.50;;;;;;4966406;28;20810;-74
2021/05/14 12:33:53;;;;;;;0.40;0.40;;;19.90;93.50;;;;;;4973962;28;20197;-75
2021/05/14 12:36:24;;;;;;;0.40;0.40;;;19.80;92.00;;;;;;4961814;28;20220;-74
2021/05/14 12:38:53;;;;;;;0.40;0.40;;;19.90;90.70;;;;;;4961827;28;20667;-74
2021/05/14 12:41:27;;;;;;;0.30;0.30;;;19.90;91.20;;;;;;4964001;28;20270;-74
2021/05/14 12:44:12;;;;;;;0.40;0.40;;;19.90;89.80;;;;;;4960639;28;20194;-74
2021/05/14 12:46:59;;;;;;;0.40;0.40;;;19.90;90.50;;;;;;4961420;28;20264;-74
2021/05/14 12:49:29;;;;;;;0.40;0.40;;;19.80;89.90;;;;;;4967590;28;20557;-74
2021/05/14 12:52:05;;;;;;;0.30;0.30;;;19.70;91.20;;;;;;4956690;28;20205;-73
2021/05/14 12:54:34;;;;;;;0.30;0.30;;;19.60;87.60;;;;;;4955552;28;20229;-73
2021/05/14 12:57:23;;;;;;;0.40;0.40;;;19.50;91.40;;;;;;4955715;29;20229;-74
2021/05/14 12:59:51;;;;;;;0.40;0.40;;;19.10;90.00;;;;;;4960727;28;20607;-74
2021/05/14 13:02:20;;;;;;;0.40;0.40;;;18.80;91.40;;;;;;4958306;28;20210;-74
2021/05/14 13:04:57;;;;;;;0.40;0.40;;;18.70;91.50;;;;;;4960375;28;20284;-73
2021/05/14 13:07:25;;;;;;;0.50;0.50;;;18.50;92.20;;;;;;4955176;29;20283;-73
2021/05/14 13:09:52;;;;;;;0.30;0.30;;;18.60;91.90;;;;;;4955121;29;20233;-73
2021/05/14 13:12:20;;;;;;;0.40;0.40;;;18.80;91.90;;;;;;4961109;28;20201;-73
2021/05/14 13:14:48;;;;;;;0.40;0.40;;;18.30;91.10;;;;;;4974287;28;20228;-74
2021/05/14 13:17:15;;;;;;;0.30;0.30;;;18.70;91.30;;;;;;4972839;28;20260;-73
2021/05/14 13:19:43;;;;;;;0.30;0.30;;;18.10;91.90;;;;;;4974411;28;20220;-74
2021/05/14 13:22:20;;;;;;;0.40;0.40;;;18.20;93.20;;;;;;4976488;28;20208;-73
2021/05/14 13:25:14;;;;;;;0.40;0.40;;;17.90;93.40;;;;;;4974007;28;20228;-76
2021/05/14 13:27:42;;;;;;;0.40;0.40;;;17.80;93.80;;;;;;4972522;28;20209;-75
2021/05/14 13:30:12;;;;;;;0.40;0.40;;;17.70;92.60;;;;;;4973923;28;20200;-75
2021/05/14 13:32:39;;;;;;;0.40;0.40;;;17.70;93.40;;;;;;4974175;28;20669;-75
2021/05/14 13:35:17;;;;;;;0.40;0.40;;;17.70;92.90;;;;;;4967765;28;20222;-75
2021/05/14 13:37:46;;;;;;;0.40;0.40;;;17.70;93.50;;;;;;4961820;28;20201;-76
2021/05/14 13:40:14;;;;;;;0.50;0.50;;;17.60;93.80;;;;;;4969136;28;20275;-75
2021/05/14 13:42:42;;;;;;;0.50;0.50;;;17.40;94.30;;;;;;4954805;28;20260;-75
2021/05/14 13:45:12;;;;;;;0.40;0.40;;;17.40;96.50;;;;;;4959897;28;20220;-75
2021/05/14 13:47:41;;;;;;;0.50;0.50;;;17.10;95.60;;;;;;4957424;28;20205;-75
2021/05/14 13:50:10;;;;;;;0.40;0.40;;;17.20;94.50;;;;;;4954253;28;20293;-76
2021/05/14 13:52:37;;;;;;;0.47;0.47;;;17.20;95.80;;;;;;4962225;28;20363;-75
2021/05/14 13:55:09;;;;;;;0.50;0.50;;;17.00;95.70;;;;;;4956994;28;20280;-76
2021/05/14 13:57:37;;;;;;;0.40;0.40;;;17.00;96.30;;;;;;4954205;29;20228;-76
2021/05/14 14:00:05;;;;;;;0.50;0.50;;;17.00;96.40;;;;;;4954327;29;20276;-76
2021/05/14 14:02:33;;;;;;;0.50;0.50;;;16.90;96.80;;;;;;4954388;29;20205;-75
2021/05/14 14:05:01;;;;;;;0.40;0.40;;;;;;;;;;4954034;28;20758;-76
2021/05/14 14:07:29;;;;;;;0.50;0.50;;;;;;;;;;4953770;28;20634;-75
2021/05/14 14:09:56;;;;;;;0.50;0.50;;;16.70;99.90;;;;;;4954370;29;20264;-75
2021/05/14 14:12:26;;;;;;;0.50;0.50;;;;;;;;;;4964617;28;20270;-75
2021/05/14 14:14:53;;;;;;;0.50;0.50;;;16.20;99.90;;;;;;4965432;28;20294;-75
2021/05/14 14:17:21;;;;;;;0.50;0.50;;;16.10;99.90;;;;;;4964992;28;20284;-76
2021/05/14 14:19:49;;;;;;;0.60;0.60;;;15.60;99.90;;;;;;4962281;28;20269;-76
2021/05/14 14:22:16;;;;;;;0.60;0.60;;;14.90;99.90;;;;;;4964058;28;20204;-76
2021/05/14 14:24:44;;;;;;;0.60;0.60;;;14.50;99.90;;;;;;4965034;28;20224;-77
2021/05/14 14:27:12;;;;;;;0.70;0.70;;;13.90;99.90;;;;;;4962487;28;20201;-77
2021/05/14 14:29:39;;;;;;;0.80;0.80;;;13.70;99.90;;;;;;4961843;28;20248;-77
2021/05/14 14:32:07;;;;;;;0.60;0.60;;;13.60;99.90;;;;;;4967233;28;20615;-77
2021/05/14 14:34:34;;;;;;;0.70;0.70;;;13.50;99.90;;;;;;4963432;28;20225;-77
2021/05/14 14:37:02;;;;;;;0.70;0.70;;;13.40;99.90;;;;;;4961897;28;20202;-77
2021/05/14 14:39:30;;;;;;;0.60;0.60;;;13.50;99.90;;;;;;4965045;28;20633;-77
2021/05/14 14:41:58;;;;;;;0.63;0.63;;;13.90;99.90;;;;;;4963514;28;20268;-77
2021/05/14 14:44:26;;;;;;;0.70;0.70;;;13.70;99.90;;;;;;4966162;28;20692;-77
2021/05/14 14:46:53;;;;;;;0.60;0.60;;;13.90;99.90;;;;;;4966742;28;20200;-77
2021/05/14 14:49:22;;;;;;;0.70;0.70;;;13.80;99.90;;;;;;4965514;28;20200;-77
2021/05/14 14:51:50;;;;;;;0.70;0.70;;;14.00;99.90;;;;;;4967189;28;20574;-78
2021/05/14 14:54:19;;;;;;;0.70;0.70;;;14.00;99.90;;;;;;4962283;28;20201;-77
2021/05/14 14:56:47;;;;;;;0.50;0.50;;;14.10;99.90;;;;;;4961271;28;20197;-77
2021/05/14 14:59:15;;;;;;;0.70;0.70;;;;;;;;;;4968593;28;20209;-77
2021/05/14 15:01:42;;;;;;;0.70;0.70;;;14.60;99.90;;;;;;4968619;28;20228;-77
2021/05/14 15:04:10;;;;;;;0.60;0.60;;;14.70;99.90;;;;;;4964178;28;20232;-78
2021/05/14 15:06:39;;;;;;;0.60;0.60;;;15.10;99.90;;;;;;4960227;28;20693;-78
2021/05/14 15:09:07;;;;;;;0.50;0.50;;;15.30;99.90;;;;;;4963044;28;20289;-77
2021/05/14 15:11:35;;;;;;;0.60;0.60;;;15.50;99.90;;;;;;4967149;28;20250;-77
2021/05/14 15:14:03;;;;;;;0.52;0.52;;;15.60;99.90;;;;;;4964225;28;20202;-76
2021/05/14 15:16:30;;;;;;;0.60;0.60;;;16.00;99.90;;;;;;4966150;28;20630;-77
2021/05/14 15:18:58;;;;;;;0.60;0.60;;;16.10;99.90;;;;;;4965653;28;20199;-77
2021/05/14 15:21:25;;;;;;;0.50;0.50;;;15.80;99.90;;;;;;4968056;28;20229;-76
2021/05/14 15:23:54;;;;;;;0.40;0.40;;;15.80;99.90;;;;;;4970146;28;20279;-76
2021/05/14 15:26:22;;;;;;;0.40;0.40;;;16.00;99.90;;;;;;4958987;28;20229;-76
2021/05/14 15:28:50;;;;;;;0.70;0.70;;;16.00;99.90;;;;;;4958893;28;20692;-75
2021/05/14 15:31:17;;;;;;;0.40;0.40;;;16.10;99.90;;;;;;4963492;28;20249;-77
2021/05/14 15:33:45;;;;;;;0.50;0.50;;;16.10;99.90;;;;;;4970665;28;20204;-77
2021/05/14 15:36:13;;;;;;;0.40;0.40;;;16.20;99.90;;;;;;4955517;28;20221;-77
2021/05/14 15:38:40;;;;;;;0.40;0.40;;;16.10;99.90;;;;;;4954492;28;20201;-77
2021/05/14 15:41:07;;;;;;;0.50;0.50;;;16.10;99.90;;;;;;4954170;28;20237;-78
2021/05/14 15:43:36;;;;;;;0.50;0.50;;;16.10;99.90;;;;;;4954910;28;20209;-78
2021/05/14 15:46:05;;;;;;;0.50;0.50;;;16.10;99.90;;;;;;4957654;28;20253;-78
2021/05/14 15:48:37;;;;;;;0.40;0.40;;;16.30;99.90;;;;;;4958634;29;20585;-79
2021/05/14 15:51:05;;;;;;;0.40;0.40;;;17.00;99.90;;;;;;4960707;28;20202;-78
2021/05/14 15:53:34;;;;;;;0.40;0.40;;;16.90;99.90;;;;;;4960796;28;20256;-77
2021/05/14 15:56:02;;;;;;;0.50;0.50;;;16.90;99.90;;;;;;4958133;28;20721;-77
2021/05/14 15:58:29;;;;;;;0.50;0.50;;;17.00;99.90;;;;;;4957654;29;20206;-77
2021/05/14 16:00:57;;;;;;;0.40;0.40;;;17.00;99.90;;;;;;4957050;29;20221;-77
2021/05/14 16:03:30;;;;;;;0.40;0.40;;;17.00;99.90;;;;;;4956354;29;20575;-76
2021/05/14 16:05:58;;;;;;;0.50;0.50;;;16.90;99.90;;;;;;4956474;28;20643;-77
2021/05/14 16:08:25;;;;;;;0.43;0.43;;;17.30;99.90;;;;;;4956690;29;20264;-75
2021/05/14 16:10:53;;;;;;;0.30;0.30;;;17.30;99.90;;;;;;4956376;29;20207;-76
2021/05/14 16:13:20;;;;;;;0.50;0.50;;;17.50;99.90;;;;;;4956191;29;20216;-76
2021/05/14 16:15:48;;;;;;;0.50;0.50;;;18.00;99.90;;;;;;4959626;28;20284;-76
2021/05/14 16:18:20;;;;;;;0.40;0.40;;;18.40;99.90;;;;;;4963879;28;20666;-76
2021/05/14 16:20:52;;;;;;;0.40;0.40;;;18.60;99.90;;;;;;4955630;28;20280;-76
2021/05/14 16:23:21;;;;;;;0.40;0.40;;;18.70;99.90;;;;;;4955862;29;20299;-76
2021/05/14 16:25:51;;;;;;;0.30;0.30;;;19.10;99.90;;;;;;4958974;28;20632;-76
2021/05/14 16:28:19;;;;;;;0.30;0.30;;;19.10;99.90;;;;;;4975521;28;20599;-76
2021/05/14 16:30:47;;;;;;;0.30;0.30;;;19.00;99.90;;;;;;4955781;28;20201;-77
2021/05/14 16:33:14;;;;;;;0.40;0.40;;;18.60;99.90;;;;;;4956163;28;20201;-77
2021/05/14 16:35:42;;;;;;;0.40;0.40;;;18.20;99.90;;;;;;4957781;28;20221;-75
2021/05/14 16:38:10;;;;;;;0.50;0.50;;;17.60;99.90;;;;;;4957849;28;20201;-75
2021/05/14 16:40:38;;;;;;;0.40;0.40;;;17.30;99.90;;;;;;4956587;28;20582;-75
2021/05/14 16:43:05;;;;;;;0.40;0.40;;;17.20;99.90;;;;;;4956648;28;20209;-76
2021/05/14 16:45:33;;;;;;;0.40;0.40;;;17.00;99.90;;;;;;4955262;28;20259;-76
2021/05/14 16:48:00;;;;;;;0.40;0.40;;;16.80;99.90;;;;;;4955693;28;20601;-76
2021/05/14 16:50:28;;;;;;;0.50;0.50;;;16.70;99.90;;;;;;4958788;28;20255;-74
2021/05/14 16:52:55;;;;;;;0.40;0.40;;;16.60;99.90;;;;;;4956481;29;20202;-74
2021/05/14 16:55:24;;;;;;;0.40;0.40;;;;;;;;;;4955810;28;20770;-74
2021/05/14 16:57:52;;;;;;;0.40;0.40;;;;;;;;;;4955024;28;20201;-76
2021/05/14 17:00:20;;;;;;;0.50;0.50;;;16.20;99.90;;;;;;4957011;28;20220;-77
2021/05/14 17:02:52;;;;;;;0.40;0.40;;;16.10;99.90;;;;;;4962500;28;20197;-76
2021/05/14 17:05:20;;;;;;;0.40;0.40;;;16.10;99.90;;;;;;4966861;28;20229;-76
2021/05/14 17:07:47;;;;;;;0.50;0.50;;;16.10;99.90;;;;;;4962232;28;20670;-76
2021/05/14 17:10:15;;;;;;;0.40;0.40;;;16.10;99.90;;;;;;4962482;28;20197;-75
2021/05/14 17:12:44;;;;;;;0.55;0.55;;;16.00;99.90;;;;;;4970678;28;20217;-76
2021/05/14 17:15:12;;;;;;;0.40;0.40;;;15.90;99.90;;;;;;4964022;28;20216;-75